sensor_id;sensor_type;location;lat;lon;timestamp;P1;P2;P0
64627;PMS5003;68467;50.960;0.314;2023-11-21T12:30:54;4;4;
64627;PMS5003;68467;50.960;0.314;2023-11-21T12:33:21;5;5;
64627;PMS5003;68467;50.960;0.314;2023-11-21T12:35:49;6;6;
64627;PMS5003;68467;50.960;0.314;2023-11-21T12:38:16;6;5;
64627;PMS5003;68467;50.960;0.314;2023-11-21T12:40:43;7;7;
64627;PMS5003;68467;50.960;0.314;2023-11-21T12:43:11;6;6;
64627;PMS5003;68467;50.960;0.314;2023-11-21T12:45:39;5;5;
64627;PMS5003;68467;50.960;0.314;2023-11-21T12:48:06;5;5;
64627;PMS5003;68467;50.960;0.314;2023-11-21T12:50:34;8;8;
64627;PMS5003;68467;50.960;0.314;2023-11-21T12:53:03;9;9;
64627;PMS5003;68467;50.960;0.314;2023-11-21T12:55:33;7;7;
64627;PMS5003;68467;50.960;0.314;2023-11-21T12:58:01;6;6;
64627;PMS5003;68467;50.960;0.314;2023-11-21T13:00:31;5;5;
64627;PMS5003;68467;50.960;0.314;2023-11-21T13:03:00;6;5;
64627;PMS5003;68467;50.960;0.314;2023-11-21T13:05:30;6;6;
64627;PMS5003;68467;50.960;0.314;2023-11-21T13:07:58;5;5;
64627;PMS5003;68467;50.960;0.314;2023-11-21T13:10:26;5;5;
64627;PMS5003;68467;50.960;0.314;2023-11-21T13:12:54;4;4;
64627;PMS5003;68467;50.960;0.314;2023-11-21T13:15:21;4;4;
64627;PMS5003;68467;50.960;0.314;2023-11-21T13:17:49;4;4;
64627;PMS5003;68467;50.960;0.314;2023-11-21T13:20:17;5;5;
64627;PMS5003;68467;50.960;0.314;2023-11-21T13:22:45;4;4;
64627;PMS5003;68467;50.960;0.314;2023-11-21T13:25:14;2;2;
64627;PMS5003;68467;50.960;0.314;2023-11-21T13:27:44;4;4;
64627;PMS5003;68467;50.960;0.314;2023-11-21T13:30:12;3;3;
64627;PMS5003;68467;50.960;0.314;2023-11-21T13:32:41;4;4;
64627;PMS5003;68467;50.960;0.314;2023-11-21T13:35:08;3;3;
64627;PMS5003;68467;50.960;0.314;2023-11-21T13:37:34;4;4;
64627;PMS5003;68467;50.960;0.314;2023-11-21T13:40:02;3;3;
64627;PMS5003;68467;50.960;0.314;2023-11-21T13:42:29;3;3;
64627;PMS5003;68467;50.960;0.314;2023-11-21T13:44:57;4;4;
64627;PMS5003;68467;50.960;0.314;2023-11-21T13:47:25;4;4;
64627;PMS5003;68467;50.960;0.314;2023-11-21T13:49:52;4;4;
64627;PMS5003;68467;50.960;0.314;2023-11-21T13:52:19;4;4;
64627;PMS5003;68467;50.960;0.314;2023-11-21T13:54:46;4;4;
64627;PMS5003;68467;50.960;0.314;2023-11-21T13:57:13;4;3;
64627;PMS5003;68467;50.960;0.314;2023-11-21T13:59:40;4;4;
64627;PMS5003;68467;50.960;0.314;2023-11-21T14:02:07;2;2;
64627;PMS5003;68467;50.960;0.314;2023-11-21T14:04:34;3;3;
64627;PMS5003;68467;50.960;0.314;2023-11-21T14:07:01;2;2;
64627;PMS5003;68467;50.960;0.314;2023-11-21T14:09:29;2;2;
64627;PMS5003;68467;50.960;0.314;2023-11-21T14:11:56;4;4;
64627;PMS5003;68467;50.960;0.314;2023-11-21T14:14:24;4;4;
64627;PMS5003;68467;50.960;0.314;2023-11-21T14:16:53;4;4;
64627;PMS5003;68467;50.960;0.314;2023-11-21T14:19:21;3;3;
64627;PMS5003;68467;50.960;0.314;2023-11-21T14:21:48;5;4;
64627;PMS5003;68467;50.960;0.314;2023-11-21T14:24:16;8;8;
64627;PMS5003;68467;50.960;0.314;2023-11-21T14:26:43;13;13;
64627;PMS5003;68467;50.960;0.314;2023-11-21T14:29:12;12;11;
64627;PMS5003;68467;50.960;0.314;2023-11-21T14:31:40;7;7;
64627;PMS5003;68467;50.960;0.314;2023-11-21T14:34:08;4;4;
64627;PMS5003;68467;50.960;0.314;2023-11-21T14:36:35;4;3;
64627;PMS5003;68467;50.960;0.314;2023-11-21T14:39:02;5;5;
64627;PMS5003;68467;50.960;0.314;2023-11-21T14:41:29;4;4;
64627;PMS5003;68467;50.960;0.314;2023-11-21T14:43:56;4;4;
64627;PMS5003;68467;50.960;0.314;2023-11-21T14:46:23;4;4;
64627;PMS5003;68467;50.960;0.314;2023-11-21T14:48:50;4;4;
64627;PMS5003;68467;50.960;0.314;2023-11-21T14:51:17;5;5;
64627;PMS5003;68467;50.960;0.314;2023-11-21T14:53:44;5;5;
64627;PMS5003;68467;50.960;0.314;2023-11-21T14:56:11;5;5;
64627;PMS5003;68467;50.960;0.314;2023-11-21T14:58:38;4;4;
64627;PMS5003;68467;50.960;0.314;2023-11-21T15:01:05;4;4;
64627;PMS5003;68467;50.960;0.314;2023-11-21T15:03:32;6;5;
64627;PMS5003;68467;50.960;0.314;2023-11-21T15:06:00;5;4;
64627;PMS5003;68467;50.960;0.314;2023-11-21T15:08:28;6;6;
64627;PMS5003;68467;50.960;0.314;2023-11-21T15:10:56;9;9;
64627;PMS5003;68467;50.960;0.314;2023-11-21T15:13:24;16;15;
64627;PMS5003;68467;50.960;0.314;2023-11-21T15:15:52;16;16;
64627;PMS5003;68467;50.960;0.314;2023-11-21T15:18:20;13;13;
64627;PMS5003;68467;50.960;0.314;2023-11-21T15:20:47;15;14;
64627;PMS5003;68467;50.960;0.314;2023-11-21T15:23:14;9;8;
64627;PMS5003;68467;50.960;0.314;2023-11-21T15:25:41;8;8;
64627;PMS5003;68467;50.960;0.314;2023-11-21T15:28:08;3;3;
64627;PMS5003;68467;50.960;0.314;2023-11-21T15:30:35;3;3;
64627;PMS5003;68467;50.960;0.314;2023-11-21T15:33:02;4;3;
64627;PMS5003;68467;50.960;0.314;2023-11-21T15:35:29;1;1;
64627;PMS5003;68467;50.960;0.314;2023-11-21T15:37:56;4;3;
64627;PMS5003;68467;50.960;0.314;2023-11-21T15:40:23;4;4;
64627;PMS5003;68467;50.960;0.314;2023-11-21T15:42:50;3;3;
64627;PMS5003;68467;50.960;0.314;2023-11-21T15:45:18;2;2;
64627;PMS5003;68467;50.960;0.314;2023-11-21T15:47:45;4;4;
64627;PMS5003;68467;50.960;0.314;2023-11-21T15:50:12;2;2;
64627;PMS5003;68467;50.960;0.314;2023-11-21T15:52:39;2;2;
64627;PMS5003;68467;50.960;0.314;2023-11-21T15:55:07;3;3;
64627;PMS5003;68467;50.960;0.314;2023-11-21T15:57:34;6;6;
64627;PMS5003;68467;50.960;0.314;2023-11-21T16:00:01;2;2;
64627;PMS5003;68467;50.960;0.314;2023-11-21T16:02:28;2;2;
64627;PMS5003;68467;50.960;0.314;2023-11-21T16:04:55;2;2;
64627;PMS5003;68467;50.960;0.314;2023-11-21T16:07:22;2;2;
64627;PMS5003;68467;50.960;0.314;2023-11-21T16:09:49;2;2;
64627;PMS5003;68467;50.960;0.314;2023-11-21T16:12:16;2;2;
64627;PMS5003;68467;50.960;0.314;2023-11-21T16:14:43;1;1;
64627;PMS5003;68467;50.960;0.314;2023-11-21T16:17:10;3;3;
64627;PMS5003;68467;50.960;0.314;2023-11-21T16:19:38;3;3;
64627;PMS5003;68467;50.960;0.314;2023-11-21T16:22:06;1;1;
64627;PMS5003;68467;50.960;0.314;2023-11-21T16:24:34;3;3;
64627;PMS5003;68467;50.960;0.314;2023-11-21T16:27:01;4;4;
64627;PMS5003;68467;50.960;0.314;2023-11-21T16:29:30;2;2;
64627;PMS5003;68467;50.960;0.314;2023-11-21T16:31:58;3;3;
64627;PMS5003;68467;50.960;0.314;2023-11-21T16:34:25;3;3;
64627;PMS5003;68467;50.960;0.314;2023-11-21T16:36:53;3;3;
64627;PMS5003;68467;50.960;0.314;2023-11-21T16:39:21;3;3;
64627;PMS5003;68467;50.960;0.314;2023-11-21T16:41:48;2;2;
64627;PMS5003;68467;50.960;0.314;2023-11-21T16:44:15;3;3;
64627;PMS5003;68467;50.960;0.314;2023-11-21T16:46:44;2;2;
64627;PMS5003;68467;50.960;0.314;2023-11-21T16:49:11;4;4;
64627;PMS5003;68467;50.960;0.314;2023-11-21T16:51:38;3;3;
64627;PMS5003;68467;50.960;0.314;2023-11-21T16:54:06;3;3;
64627;PMS5003;68467;50.960;0.314;2023-11-21T16:56:34;3;3;
64627;PMS5003;68467;50.960;0.314;2023-11-21T16:59:01;2;2;
64627;PMS5003;68467;50.960;0.314;2023-11-21T17:01:29;2;2;
64627;PMS5003;68467;50.960;0.314;2023-11-21T17:03:56;3;3;
64627;PMS5003;68467;50.960;0.314;2023-11-21T17:06:23;5;5;
64627;PMS5003;68467;50.960;0.314;2023-11-21T17:08:51;6;5;
64627;PMS5003;68467;50.960;0.314;2023-11-21T17:11:18;7;6;
64627;PMS5003;68467;50.960;0.314;2023-11-21T17:13:45;5;5;
64627;PMS5003;68467;50.960;0.314;2023-11-21T17:16:12;9;8;
64627;PMS5003;68467;50.960;0.314;2023-11-21T17:18:39;14;13;
64627;PMS5003;68467;50.960;0.314;2023-11-21T17:21:06;5;5;
64627;PMS5003;68467;50.960;0.314;2023-11-21T17:23:34;10;9;
64627;PMS5003;68467;50.960;0.314;2023-11-21T17:26:01;6;6;
64627;PMS5003;68467;50.960;0.314;2023-11-21T17:28:28;9;7;
64627;PMS5003;68467;50.960;0.314;2023-11-21T17:30:55;12;10;
64627;PMS5003;68467;50.960;0.314;2023-11-21T17:33:23;6;6;
64627;PMS5003;68467;50.960;0.314;2023-11-21T17:35:50;5;5;
64627;PMS5003;68467;50.960;0.314;2023-11-21T17:38:17;7;5;
64627;PMS5003;68467;50.960;0.314;2023-11-21T17:40:44;8;8;
64627;PMS5003;68467;50.960;0.314;2023-11-21T17:43:12;10;9;
64627;PMS5003;68467;50.960;0.314;2023-11-21T17:45:39;5;5;
64627;PMS5003;68467;50.960;0.314;2023-11-21T17:48:06;12;12;
64627;PMS5003;68467;50.960;0.314;2023-11-21T17:50:33;5;5;
64627;PMS5003;68467;50.960;0.314;2023-11-21T17:53:01;19;19;
64627;PMS5003;68467;50.960;0.314;2023-11-21T17:55:29;6;6;
64627;PMS5003;68467;50.960;0.314;2023-11-21T17:57:56;9;9;
64627;PMS5003;68467;50.960;0.314;2023-11-21T18:00:23;5;4;
64627;PMS5003;68467;50.960;0.314;2023-11-21T18:02:51;15;14;
64627;PMS5003;68467;50.960;0.314;2023-11-21T18:05:19;7;7;
64627;PMS5003;68467;50.960;0.314;2023-11-21T18:07:48;8;7;
64627;PMS5003;68467;50.960;0.314;2023-11-21T18:10:16;13;12;
64627;PMS5003;68467;50.960;0.314;2023-11-21T18:12:43;7;7;
64627;PMS5003;68467;50.960;0.314;2023-11-21T18:15:10;12;12;
64627;PMS5003;68467;50.960;0.314;2023-11-21T18:17:39;12;12;
64627;PMS5003;68467;50.960;0.314;2023-11-21T18:20:07;4;4;
64627;PMS5003;68467;50.960;0.314;2023-11-21T18:22:36;28;24;
64627;PMS5003;68467;50.960;0.314;2023-11-21T18:25:04;14;12;
64627;PMS5003;68467;50.960;0.314;2023-11-21T18:27:32;21;19;
64627;PMS5003;68467;50.960;0.314;2023-11-21T18:30:00;13;13;
64627;PMS5003;68467;50.960;0.314;2023-11-21T18:32:27;11;11;
64627;PMS5003;68467;50.960;0.314;2023-11-21T18:34:55;12;12;
64627;PMS5003;68467;50.960;0.314;2023-11-21T18:37:22;11;10;
64627;PMS5003;68467;50.960;0.314;2023-11-21T18:39:50;16;16;
64627;PMS5003;68467;50.960;0.314;2023-11-21T18:42:18;16;16;
64627;PMS5003;68467;50.960;0.314;2023-11-21T18:44:45;18;17;
64627;PMS5003;68467;50.960;0.314;2023-11-21T18:47:13;17;16;
64627;PMS5003;68467;50.960;0.314;2023-11-21T18:49:40;21;20;
64627;PMS5003;68467;50.960;0.314;2023-11-21T18:52:09;9;8;
64627;PMS5003;68467;50.960;0.314;2023-11-21T18:54:36;12;10;
64627;PMS5003;68467;50.960;0.314;2023-11-21T18:57:03;11;10;
64627;PMS5003;68467;50.960;0.314;2023-11-21T18:59:30;11;11;
64627;PMS5003;68467;50.960;0.314;2023-11-21T19:01:59;12;12;
64627;PMS5003;68467;50.960;0.314;2023-11-21T19:04:26;10;9;
64627;PMS5003;68467;50.960;0.314;2023-11-21T19:06:54;6;6;
64627;PMS5003;68467;50.960;0.314;2023-11-21T19:09:21;7;7;
64627;PMS5003;68467;50.960;0.314;2023-11-21T19:11:48;11;11;
64627;PMS5003;68467;50.960;0.314;2023-11-21T19:14:16;12;9;
64627;PMS5003;68467;50.960;0.314;2023-11-21T19:16:44;9;8;
64627;PMS5003;68467;50.960;0.314;2023-11-21T19:19:12;8;8;
64627;PMS5003;68467;50.960;0.314;2023-11-21T19:21:39;10;9;
64627;PMS5003;68467;50.960;0.314;2023-11-21T19:24:07;12;12;
64627;PMS5003;68467;50.960;0.314;2023-11-21T19:26:36;13;11;
64627;PMS5003;68467;50.960;0.314;2023-11-21T19:29:03;13;13;
64627;PMS5003;68467;50.960;0.314;2023-11-21T19:31:30;14;13;
64627;PMS5003;68467;50.960;0.314;2023-11-21T19:33:58;10;10;
64627;PMS5003;68467;50.960;0.314;2023-11-21T19:36:25;14;14;
64627;PMS5003;68467;50.960;0.314;2023-11-21T19:38:53;15;14;
64627;PMS5003;68467;50.960;0.314;2023-11-21T19:41:21;26;24;
64627;PMS5003;68467;50.960;0.314;2023-11-21T19:43:49;18;17;
64627;PMS5003;68467;50.960;0.314;2023-11-21T19:46:17;35;35;
64627;PMS5003;68467;50.960;0.314;2023-11-21T19:48:44;14;14;
64627;PMS5003;68467;50.960;0.314;2023-11-21T19:51:13;14;14;
64627;PMS5003;68467;50.960;0.314;2023-11-21T19:53:41;16;16;
64627;PMS5003;68467;50.960;0.314;2023-11-21T19:56:08;9;8;
64627;PMS5003;68467;50.960;0.314;2023-11-21T19:58:35;9;9;
64627;PMS5003;68467;50.960;0.314;2023-11-21T20:01:03;8;8;
64627;PMS5003;68467;50.960;0.314;2023-11-21T20:03:30;14;13;
64627;PMS5003;68467;50.960;0.314;2023-11-21T20:05:57;9;9;
64627;PMS5003;68467;50.960;0.314;2023-11-21T20:08:24;17;16;
64627;PMS5003;68467;50.960;0.314;2023-11-21T20:10:51;5;5;
64627;PMS5003;68467;50.960;0.314;2023-11-21T20:13:18;7;7;
64627;PMS5003;68467;50.960;0.314;2023-11-21T20:15:46;8;7;
64627;PMS5003;68467;50.960;0.314;2023-11-21T20:18:13;24;24;
64627;PMS5003;68467;50.960;0.314;2023-11-21T20:20:39;20;16;
64627;PMS5003;68467;50.960;0.314;2023-11-21T20:23:07;11;11;
64627;PMS5003;68467;50.960;0.314;2023-11-21T20:25:34;17;17;
64627;PMS5003;68467;50.960;0.314;2023-11-21T20:28:01;15;15;
64627;PMS5003;68467;50.960;0.314;2023-11-21T20:30:29;21;19;
64627;PMS5003;68467;50.960;0.314;2023-11-21T20:32:56;9;9;
64627;PMS5003;68467;50.960;0.314;2023-11-21T20:35:24;33;31;
64627;PMS5003;68467;50.960;0.314;2023-11-21T20:37:51;13;13;
64627;PMS5003;68467;50.960;0.314;2023-11-21T20:40:18;16;16;
64627;PMS5003;68467;50.960;0.314;2023-11-21T20:42:45;14;14;
64627;PMS5003;68467;50.960;0.314;2023-11-21T20:45:12;20;17;
64627;PMS5003;68467;50.960;0.314;2023-11-21T20:47:41;20;16;
64627;PMS5003;68467;50.960;0.314;2023-11-21T20:50:09;19;17;
64627;PMS5003;68467;50.960;0.314;2023-11-21T20:52:37;23;20;
64627;PMS5003;68467;50.960;0.314;2023-11-21T20:55:05;16;15;
64627;PMS5003;68467;50.960;0.314;2023-11-21T20:57:33;14;14;
64627;PMS5003;68467;50.960;0.314;2023-11-21T21:00:00;24;23;
64627;PMS5003;68467;50.960;0.314;2023-11-21T21:02:28;15;15;
64627;PMS5003;68467;50.960;0.314;2023-11-21T21:04:55;11;10;
64627;PMS5003;68467;50.960;0.314;2023-11-21T21:07:22;12;9;
64627;PMS5003;68467;50.960;0.314;2023-11-21T21:09:49;11;11;
64627;PMS5003;68467;50.960;0.314;2023-11-21T21:12:16;11;10;
64627;PMS5003;68467;50.960;0.314;2023-11-21T21:14:44;10;9;
64627;PMS5003;68467;50.960;0.314;2023-11-21T21:17:11;8;7;
64627;PMS5003;68467;50.960;0.314;2023-11-21T21:19:38;9;8;
64627;PMS5003;68467;50.960;0.314;2023-11-21T21:22:05;10;9;
64627;PMS5003;68467;50.960;0.314;2023-11-21T21:24:34;10;10;
64627;PMS5003;68467;50.960;0.314;2023-11-21T21:27:01;6;5;
64627;PMS5003;68467;50.960;0.314;2023-11-21T21:29:28;4;4;
64627;PMS5003;68467;50.960;0.314;2023-11-21T21:31:55;8;8;
64627;PMS5003;68467;50.960;0.314;2023-11-21T21:34:22;7;7;
64627;PMS5003;68467;50.960;0.314;2023-11-21T21:36:49;8;8;
64627;PMS5003;68467;50.960;0.314;2023-11-21T21:39:16;12;11;
64627;PMS5003;68467;50.960;0.314;2023-11-21T21:41:43;7;7;
64627;PMS5003;68467;50.960;0.314;2023-11-21T21:44:10;9;9;
64627;PMS5003;68467;50.960;0.314;2023-11-21T21:46:38;11;9;
64627;PMS5003;68467;50.960;0.314;2023-11-21T21:49:05;7;6;
64627;PMS5003;68467;50.960;0.314;2023-11-21T21:51:32;5;5;
64627;PMS5003;68467;50.960;0.314;2023-11-21T21:53:59;6;5;
64627;PMS5003;68467;50.960;0.314;2023-11-21T21:56:26;5;5;
64627;PMS5003;68467;50.960;0.314;2023-11-21T21:58:53;8;8;
64627;PMS5003;68467;50.960;0.314;2023-11-21T22:01:20;12;12;
64627;PMS5003;68467;50.960;0.314;2023-11-21T22:03:47;16;14;
64627;PMS5003;68467;50.960;0.314;2023-11-21T22:06:15;9;8;
64627;PMS5003;68467;50.960;0.314;2023-11-21T22:08:42;12;12;
64627;PMS5003;68467;50.960;0.314;2023-11-21T22:11:09;16;16;
64627;PMS5003;68467;50.960;0.314;2023-11-21T22:13:36;12;12;
64627;PMS5003;68467;50.960;0.314;2023-11-21T22:16:03;7;7;
64627;PMS5003;68467;50.960;0.314;2023-11-21T22:18:30;6;5;
64627;PMS5003;68467;50.960;0.314;2023-11-21T22:20:57;6;6;
64627;PMS5003;68467;50.960;0.314;2023-11-21T22:23:24;7;5;
64627;PMS5003;68467;50.960;0.314;2023-11-21T22:25:52;7;6;
64627;PMS5003;68467;50.960;0.314;2023-11-21T22:28:19;7;7;
64627;PMS5003;68467;50.960;0.314;2023-11-21T22:30:46;6;5;
64627;PMS5003;68467;50.960;0.314;2023-11-21T22:33:13;9;8;
64627;PMS5003;68467;50.960;0.314;2023-11-21T22:35:40;11;9;
64627;PMS5003;68467;50.960;0.314;2023-11-21T22:38:07;9;8;
64627;PMS5003;68467;50.960;0.314;2023-11-21T22:40:34;6;6;
64627;PMS5003;68467;50.960;0.314;2023-11-21T22:43:02;8;8;
64627;PMS5003;68467;50.960;0.314;2023-11-21T22:45:29;9;8;
64627;PMS5003;68467;50.960;0.314;2023-11-21T22:47:56;8;8;
64627;PMS5003;68467;50.960;0.314;2023-11-21T22:50:23;5;5;
64627;PMS5003;68467;50.960;0.314;2023-11-21T22:52:50;5;5;
64627;PMS5003;68467;50.960;0.314;2023-11-21T22:55:17;8;7;
64627;PMS5003;68467;50.960;0.314;2023-11-21T22:57:45;8;7;
64627;PMS5003;68467;50.960;0.314;2023-11-21T23:00:13;5;5;
64627;PMS5003;68467;50.960;0.314;2023-11-21T23:02:40;6;6;
64627;PMS5003;68467;50.960;0.314;2023-11-21T23:05:09;7;5;
64627;PMS5003;68467;50.960;0.314;2023-11-21T23:07:36;4;4;
64627;PMS5003;68467;50.960;0.314;2023-11-21T23:10:03;5;5;
64627;PMS5003;68467;50.960;0.314;2023-11-21T23:12:30;5;3;
64627;PMS5003;68467;50.960;0.314;2023-11-21T23:14:57;4;4;
64627;PMS5003;68467;50.960;0.314;2023-11-21T23:17:25;8;7;
64627;PMS5003;68467;50.960;0.314;2023-11-21T23:19:53;4;4;
64627;PMS5003;68467;50.960;0.314;2023-11-21T23:22:20;8;7;
64627;PMS5003;68467;50.960;0.314;2023-11-21T23:24:47;4;4;
64627;PMS5003;68467;50.960;0.314;2023-11-21T23:27:14;6;6;
64627;PMS5003;68467;50.960;0.314;2023-11-21T23:29:41;6;5;
64627;PMS5003;68467;50.960;0.314;2023-11-21T23:32:08;6;6;
64627;PMS5003;68467;50.960;0.314;2023-11-21T23:34:35;5;5;
64627;PMS5003;68467;50.960;0.314;2023-11-21T23:37:02;7;6;
64627;PMS5003;68467;50.960;0.314;2023-11-21T23:39:30;7;6;
64627;PMS5003;68467;50.960;0.314;2023-11-21T23:41:57;5;5;
64627;PMS5003;68467;50.960;0.314;2023-11-21T23:44:25;7;7;
64627;PMS5003;68467;50.960;0.314;2023-11-21T23:46:53;7;6;
64627;PMS5003;68467;50.960;0.314;2023-11-21T23:49:20;7;7;
64627;PMS5003;68467;50.960;0.314;2023-11-21T23:51:47;7;7;
64627;PMS5003;68467;50.960;0.314;2023-11-21T23:54:14;7;5;
64627;PMS5003;68467;50.960;0.314;2023-11-21T23:56:41;5;5;
64627;PMS5003;68467;50.960;0.314;2023-11-21T23:59:08;7;7;
